sensor_id;sensor_type;location;lat;lon;timestamp;temperature;humidity
52125;DHT22;38119;52.710;6.398;2024-01-30T00:00:11;6.70;99.90
52125;DHT22;38119;52.710;6.398;2024-01-30T00:02:37;6.70;99.90
52125;DHT22;38119;52.710;6.398;2024-01-30T00:05:02;6.70;99.90
52125;DHT22;38119;52.710;6.398;2024-01-30T00:07:29;6.70;99.90
52125;DHT22;38119;52.710;6.398;2024-01-30T00:09:54;6.70;99.90
52125;DHT22;38119;52.710;6.398;2024-01-30T00:12:20;6.70;99.90
52125;DHT22;38119;52.710;6.398;2024-01-30T00:14:45;6.70;99.90
52125;DHT22;38119;52.710;6.398;2024-01-30T00:17:11;6.70;99.90
52125;DHT22;38119;52.710;6.398;2024-01-30T00:19:37;6.60;99.90
52125;DHT22;38119;52.710;6.398;2024-01-30T00:22:02;6.60;99.90
52125;DHT22;38119;52.710;6.398;2024-01-30T00:24:28;6.60;99.90
52125;DHT22;38119;52.710;6.398;2024-01-30T00:26:53;6.60;99.90
52125;DHT22;38119;52.710;6.398;2024-01-30T00:29:19;6.60;99.90
52125;DHT22;38119;52.710;6.398;2024-01-30T00:31:48;6.60;99.90
52125;DHT22;38119;52.710;6.398;2024-01-30T00:34:13;6.60;99.90
52125;DHT22;38119;52.710;6.398;2024-01-30T00:36:39;6.50;99.90
52125;DHT22;38119;52.710;6.398;2024-01-30T00:39:04;6.60;99.90
52125;DHT22;38119;52.710;6.398;2024-01-30T00:41:32;6.60;99.90
52125;DHT22;38119;52.710;6.398;2024-01-30T00:43:58;6.60;99.90
52125;DHT22;38119;52.710;6.398;2024-01-30T00:46:23;6.60;99.90
52125;DHT22;38119;52.710;6.398;2024-01-30T00:48:49;6.60;99.90
52125;DHT22;38119;52.710;6.398;2024-01-30T00:51:14;6.60;99.90
52125;DHT22;38119;52.710;6.398;2024-01-30T00:53:40;6.60;99.90
52125;DHT22;38119;52.710;6.398;2024-01-30T00:56:07;7.60;99.90
52125;DHT22;38119;52.710;6.398;2024-01-30T00:58:33;6.60;99.90
52125;DHT22;38119;52.710;6.398;2024-01-30T01:00:58;6.50;99.90
52125;DHT22;38119;52.710;6.398;2024-01-30T01:03:24;6.50;99.90
52125;DHT22;38119;52.710;6.398;2024-01-30T01:05:49;6.60;99.90
52125;DHT22;38119;52.710;6.398;2024-01-30T01:08:15;6.50;99.90
52125;DHT22;38119;52.710;6.398;2024-01-30T01:10:41;6.50;99.90
52125;DHT22;38119;52.710;6.398;2024-01-30T01:13:06;6.50;99.90
52125;DHT22;38119;52.710;6.398;2024-01-30T01:15:32;6.50;99.90
52125;DHT22;38119;52.710;6.398;2024-01-30T01:17:57;6.50;99.90
52125;DHT22;38119;52.710;6.398;2024-01-30T01:20:23;6.60;99.90
52125;DHT22;38119;52.710;6.398;2024-01-30T01:22:49;6.50;99.90
52125;DHT22;38119;52.710;6.398;2024-01-30T01:25:14;6.60;99.90
52125;DHT22;38119;52.710;6.398;2024-01-30T01:27:40;6.60;99.90
52125;DHT22;38119;52.710;6.398;2024-01-30T01:30:09;6.60;99.90
52125;DHT22;38119;52.710;6.398;2024-01-30T01:32:35;6.60;99.90
52125;DHT22;38119;52.710;6.398;2024-01-30T01:35:01;6.60;99.90
52125;DHT22;38119;52.710;6.398;2024-01-30T01:37:27;6.60;99.90
52125;DHT22;38119;52.710;6.398;2024-01-30T01:39:53;6.70;99.90
52125;DHT22;38119;52.710;6.398;2024-01-30T01:42:19;6.60;99.90
52125;DHT22;38119;52.710;6.398;2024-01-30T01:44:44;6.60;99.90
52125;DHT22;38119;52.710;6.398;2024-01-30T01:47:10;6.60;99.90
52125;DHT22;38119;52.710;6.398;2024-01-30T01:49:36;6.60;99.90
52125;DHT22;38119;52.710;6.398;2024-01-30T01:52:01;6.70;99.90
52125;DHT22;38119;52.710;6.398;2024-01-30T01:54:28;6.70;99.90
52125;DHT22;38119;52.710;6.398;2024-01-30T01:56:54;6.70;99.90
52125;DHT22;38119;52.710;6.398;2024-01-30T01:59:20;6.70;99.90
52125;DHT22;38119;52.710;6.398;2024-01-30T02:01:47;6.70;99.90
52125;DHT22;38119;52.710;6.398;2024-01-30T02:04:15;6.70;99.90
52125;DHT22;38119;52.710;6.398;2024-01-30T02:06:41;6.70;99.90
52125;DHT22;38119;52.710;6.398;2024-01-30T02:09:06;6.70;99.90
52125;DHT22;38119;52.710;6.398;2024-01-30T02:11:32;6.70;99.90
52125;DHT22;38119;52.710;6.398;2024-01-30T02:14:02;6.60;99.90
52125;DHT22;38119;52.710;6.398;2024-01-30T02:16:29;6.70;99.90
52125;DHT22;38119;52.710;6.398;2024-01-30T02:18:55;6.70;99.90
52125;DHT22;38119;52.710;6.398;2024-01-30T02:21:20;6.70;99.90
52125;DHT22;38119;52.710;6.398;2024-01-30T02:23:50;6.60;99.90
52125;DHT22;38119;52.710;6.398;2024-01-30T02:26:17;6.70;99.90
52125;DHT22;38119;52.710;6.398;2024-01-30T02:28:43;6.70;99.90
52125;DHT22;38119;52.710;6.398;2024-01-30T02:31:08;6.70;99.90
52125;DHT22;38119;52.710;6.398;2024-01-30T02:33:34;6.60;99.90
52125;DHT22;38119;52.710;6.398;2024-01-30T02:36:00;6.60;99.90
52125;DHT22;38119;52.710;6.398;2024-01-30T02:38:25;6.60;99.90
52125;DHT22;38119;52.710;6.398;2024-01-30T02:40:52;6.60;99.90
52125;DHT22;38119;52.710;6.398;2024-01-30T02:43:17;6.60;99.90
52125;DHT22;38119;52.710;6.398;2024-01-30T02:45:43;6.60;99.90
52125;DHT22;38119;52.710;6.398;2024-01-30T02:48:09;6.60;99.90
52125;DHT22;38119;52.710;6.398;2024-01-30T02:50:34;6.50;99.90
52125;DHT22;38119;52.710;6.398;2024-01-30T02:53:00;6.10;99.90
52125;DHT22;38119;52.710;6.398;2024-01-30T02:55:26;6.50;99.90
52125;DHT22;38119;52.710;6.398;2024-01-30T02:57:51;6.50;99.90
52125;DHT22;38119;52.710;6.398;2024-01-30T03:00:17;6.50;99.90
52125;DHT22;38119;52.710;6.398;2024-01-30T03:02:45;6.50;99.90
52125;DHT22;38119;52.710;6.398;2024-01-30T03:05:10;6.50;99.90
52125;DHT22;38119;52.710;6.398;2024-01-30T03:07:36;6.50;99.90
52125;DHT22;38119;52.710;6.398;2024-01-30T03:10:01;6.50;99.90
52125;DHT22;38119;52.710;6.398;2024-01-30T03:12:27;6.50;99.90
52125;DHT22;38119;52.710;6.398;2024-01-30T03:14:52;6.50;99.90
52125;DHT22;38119;52.710;6.398;2024-01-30T03:17:18;6.50;99.90
52125;DHT22;38119;52.710;6.398;2024-01-30T03:19:43;6.50;99.90
52125;DHT22;38119;52.710;6.398;2024-01-30T03:22:09;6.50;99.90
52125;DHT22;38119;52.710;6.398;2024-01-30T03:24:35;6.50;99.90
52125;DHT22;38119;52.710;6.398;2024-01-30T03:27:00;6.50;99.90
52125;DHT22;38119;52.710;6.398;2024-01-30T03:29:26;6.50;99.90
52125;DHT22;38119;52.710;6.398;2024-01-30T03:31:52;6.50;99.90
52125;DHT22;38119;52.710;6.398;2024-01-30T03:34:17;6.50;99.90
52125;DHT22;38119;52.710;6.398;2024-01-30T03:36:43;6.50;99.90
52125;DHT22;38119;52.710;6.398;2024-01-30T03:39:08;6.50;99.90
52125;DHT22;38119;52.710;6.398;2024-01-30T03:41:34;6.50;99.90
52125;DHT22;38119;52.710;6.398;2024-01-30T03:43:59;6.50;99.90
52125;DHT22;38119;52.710;6.398;2024-01-30T03:46:25;6.50;99.90
52125;DHT22;38119;52.710;6.398;2024-01-30T03:48:50;6.50;99.90
52125;DHT22;38119;52.710;6.398;2024-01-30T03:51:16;6.50;99.90
52125;DHT22;38119;52.710;6.398;2024-01-30T03:53:42;6.60;99.90
52125;DHT22;38119;52.710;6.398;2024-01-30T03:56:09;6.60;99.90
52125;DHT22;38119;52.710;6.398;2024-01-30T03:58:34;6.60;99.90
52125;DHT22;38119;52.710;6.398;2024-01-30T04:01:00;6.70;99.90
52125;DHT22;38119;52.710;6.398;2024-01-30T04:03:26;6.70;99.90
52125;DHT22;38119;52.710;6.398;2024-01-30T04:05:52;6.70;99.90
52125;DHT22;38119;52.710;6.398;2024-01-30T04:08:18;6.70;99.90
52125;DHT22;38119;52.710;6.398;2024-01-30T04:10:43;6.70;99.90
52125;DHT22;38119;52.710;6.398;2024-01-30T04:13:09;6.80;99.90
52125;DHT22;38119;52.710;6.398;2024-01-30T04:15:34;6.80;99.90
52125;DHT22;38119;52.710;6.398;2024-01-30T04:18:00;6.80;99.90
52125;DHT22;38119;52.710;6.398;2024-01-30T04:20:26;6.90;99.90
52125;DHT22;38119;52.710;6.398;2024-01-30T04:22:51;6.90;99.90
52125;DHT22;38119;52.710;6.398;2024-01-30T04:25:17;6.90;99.90
52125;DHT22;38119;52.710;6.398;2024-01-30T04:27:42;6.90;99.90
52125;DHT22;38119;52.710;6.398;2024-01-30T04:30:08;6.90;99.90
52125;DHT22;38119;52.710;6.398;2024-01-30T04:32:35;6.90;99.90
52125;DHT22;38119;52.710;6.398;2024-01-30T04:35:01;6.90;99.90
52125;DHT22;38119;52.710;6.398;2024-01-30T04:37:27;6.90;99.90
52125;DHT22;38119;52.710;6.398;2024-01-30T04:39:53;6.90;99.90
52125;DHT22;38119;52.710;6.398;2024-01-30T04:42:18;6.90;99.90
52125;DHT22;38119;52.710;6.398;2024-01-30T04:44:44;6.90;99.90
52125;DHT22;38119;52.710;6.398;2024-01-30T04:47:09;6.90;99.90
52125;DHT22;38119;52.710;6.398;2024-01-30T04:49:40;7.00;99.90
52125;DHT22;38119;52.710;6.398;2024-01-30T04:52:06;7.00;99.90
52125;DHT22;38119;52.710;6.398;2024-01-30T04:54:33;7.00;99.90
52125;DHT22;38119;52.710;6.398;2024-01-30T04:56:58;7.00;99.90
52125;DHT22;38119;52.710;6.398;2024-01-30T04:59:24;7.00;99.90
52125;DHT22;38119;52.710;6.398;2024-01-30T05:01:50;7.00;99.90
52125;DHT22;38119;52.710;6.398;2024-01-30T05:04:15;7.00;99.90
52125;DHT22;38119;52.710;6.398;2024-01-30T05:06:41;7.10;99.90
52125;DHT22;38119;52.710;6.398;2024-01-30T05:09:06;7.10;99.90
52125;DHT22;38119;52.710;6.398;2024-01-30T05:11:37;7.10;99.90
52125;DHT22;38119;52.710;6.398;2024-01-30T05:14:03;7.10;99.90
52125;DHT22;38119;52.710;6.398;2024-01-30T05:16:29;7.20;99.90
52125;DHT22;38119;52.710;6.398;2024-01-30T05:18:54;7.20;99.90
52125;DHT22;38119;52.710;6.398;2024-01-30T05:21:20;7.20;99.90
52125;DHT22;38119;52.710;6.398;2024-01-30T05:23:45;7.20;99.90
52125;DHT22;38119;52.710;6.398;2024-01-30T05:26:11;7.20;99.90
52125;DHT22;38119;52.710;6.398;2024-01-30T05:28:37;7.20;99.90
52125;DHT22;38119;52.710;6.398;2024-01-30T05:31:03;7.20;99.90
52125;DHT22;38119;52.710;6.398;2024-01-30T05:33:28;7.20;99.90
52125;DHT22;38119;52.710;6.398;2024-01-30T05:35:54;7.20;99.90
52125;DHT22;38119;52.710;6.398;2024-01-30T05:38:20;7.20;99.90
52125;DHT22;38119;52.710;6.398;2024-01-30T05:40:45;7.30;99.90
52125;DHT22;38119;52.710;6.398;2024-01-30T05:43:11;7.30;99.90
52125;DHT22;38119;52.710;6.398;2024-01-30T05:45:37;7.30;99.90
52125;DHT22;38119;52.710;6.398;2024-01-30T05:48:03;7.30;99.90
52125;DHT22;38119;52.710;6.398;2024-01-30T05:50:28;7.30;99.90
52125;DHT22;38119;52.710;6.398;2024-01-30T05:52:55;7.30;99.90
52125;DHT22;38119;52.710;6.398;2024-01-30T05:55:20;7.40;99.90
52125;DHT22;38119;52.710;6.398;2024-01-30T05:57:46;7.40;99.90
52125;DHT22;38119;52.710;6.398;2024-01-30T06:00:12;7.40;99.90
52125;DHT22;38119;52.710;6.398;2024-01-30T06:02:38;7.40;99.90
52125;DHT22;38119;52.710;6.398;2024-01-30T06:05:03;7.40;99.90
52125;DHT22;38119;52.710;6.398;2024-01-30T06:07:29;7.40;99.90
52125;DHT22;38119;52.710;6.398;2024-01-30T06:09:55;7.40;99.90
52125;DHT22;38119;52.710;6.398;2024-01-30T06:12:20;7.40;99.90
52125;DHT22;38119;52.710;6.398;2024-01-30T06:14:46;7.40;99.90
52125;DHT22;38119;52.710;6.398;2024-01-30T06:17:11;7.40;99.90
52125;DHT22;38119;52.710;6.398;2024-01-30T06:19:38;7.40;99.90
52125;DHT22;38119;52.710;6.398;2024-01-30T06:22:04;7.40;99.90
52125;DHT22;38119;52.710;6.398;2024-01-30T06:24:30;7.40;99.90
52125;DHT22;38119;52.710;6.398;2024-01-30T06:26:56;7.40;99.90
52125;DHT22;38119;52.710;6.398;2024-01-30T06:29:21;7.40;99.90
52125;DHT22;38119;52.710;6.398;2024-01-30T06:31:47;7.30;99.90
52125;DHT22;38119;52.710;6.398;2024-01-30T06:34:12;7.40;99.90
52125;DHT22;38119;52.710;6.398;2024-01-30T06:36:38;7.40;99.90
52125;DHT22;38119;52.710;6.398;2024-01-30T06:39:04;7.40;99.90
52125;DHT22;38119;52.710;6.398;2024-01-30T06:41:30;7.40;99.90
52125;DHT22;38119;52.710;6.398;2024-01-30T06:43:56;7.40;99.90
52125;DHT22;38119;52.710;6.398;2024-01-30T06:46:21;7.40;99.90
52125;DHT22;38119;52.710;6.398;2024-01-30T06:48:47;7.40;99.90
52125;DHT22;38119;52.710;6.398;2024-01-30T06:51:13;7.50;99.90
52125;DHT22;38119;52.710;6.398;2024-01-30T06:53:38;7.40;99.90
52125;DHT22;38119;52.710;6.398;2024-01-30T06:56:04;7.50;99.90
52125;DHT22;38119;52.710;6.398;2024-01-30T06:58:30;7.50;99.90
52125;DHT22;38119;52.710;6.398;2024-01-30T07:00:56;7.50;99.90
52125;DHT22;38119;52.710;6.398;2024-01-30T07:03:22;7.40;99.90
52125;DHT22;38119;52.710;6.398;2024-01-30T07:05:47;7.50;99.90
52125;DHT22;38119;52.710;6.398;2024-01-30T07:08:15;7.40;99.90
52125;DHT22;38119;52.710;6.398;2024-01-30T07:10:43;7.50;99.90
52125;DHT22;38119;52.710;6.398;2024-01-30T07:13:08;7.50;99.90
52125;DHT22;38119;52.710;6.398;2024-01-30T07:15:35;7.50;99.90
52125;DHT22;38119;52.710;6.398;2024-01-30T07:18:02;7.50;99.90
52125;DHT22;38119;52.710;6.398;2024-01-30T07:20:28;7.60;99.90
52125;DHT22;38119;52.710;6.398;2024-01-30T07:22:55;7.50;99.90
52125;DHT22;38119;52.710;6.398;2024-01-30T07:25:21;7.50;99.90
52125;DHT22;38119;52.710;6.398;2024-01-30T07:27:55;7.50;99.90
52125;DHT22;38119;52.710;6.398;2024-01-30T07:30:21;7.50;99.90
52125;DHT22;38119;52.710;6.398;2024-01-30T07:32:47;7.60;99.90
52125;DHT22;38119;52.710;6.398;2024-01-30T07:35:13;7.60;99.90
52125;DHT22;38119;52.710;6.398;2024-01-30T07:37:39;7.60;99.90
52125;DHT22;38119;52.710;6.398;2024-01-30T07:40:05;7.60;99.90
52125;DHT22;38119;52.710;6.398;2024-01-30T07:42:32;7.60;99.90
52125;DHT22;38119;52.710;6.398;2024-01-30T07:44:57;7.70;99.90
52125;DHT22;38119;52.710;6.398;2024-01-30T07:47:23;7.60;99.90
52125;DHT22;38119;52.710;6.398;2024-01-30T07:49:49;7.60;99.90
52125;DHT22;38119;52.710;6.398;2024-01-30T07:52:14;7.70;99.90
52125;DHT22;38119;52.710;6.398;2024-01-30T07:54:40;7.70;99.90
52125;DHT22;38119;52.710;6.398;2024-01-30T07:57:05;7.70;99.90
52125;DHT22;38119;52.710;6.398;2024-01-30T07:59:31;7.70;99.90
52125;DHT22;38119;52.710;6.398;2024-01-30T08:01:56;7.70;99.90
52125;DHT22;38119;52.710;6.398;2024-01-30T08:04:22;7.80;99.90
52125;DHT22;38119;52.710;6.398;2024-01-30T08:06:47;7.80;99.90
52125;DHT22;38119;52.710;6.398;2024-01-30T08:09:14;7.80;99.90
52125;DHT22;38119;52.710;6.398;2024-01-30T08:11:40;7.80;99.90
52125;DHT22;38119;52.710;6.398;2024-01-30T08:14:05;7.80;99.90
52125;DHT22;38119;52.710;6.398;2024-01-30T08:16:31;7.80;99.90
52125;DHT22;38119;52.710;6.398;2024-01-30T08:18:56;7.90;99.90
52125;DHT22;38119;52.710;6.398;2024-01-30T08:21:23;7.90;99.90
52125;DHT22;38119;52.710;6.398;2024-01-30T08:23:48;7.90;99.90
52125;DHT22;38119;52.710;6.398;2024-01-30T08:26:14;7.90;99.90
52125;DHT22;38119;52.710;6.398;2024-01-30T08:28:40;7.90;99.90
52125;DHT22;38119;52.710;6.398;2024-01-30T08:31:05;7.90;99.90
52125;DHT22;38119;52.710;6.398;2024-01-30T08:33:31;8.00;99.90
52125;DHT22;38119;52.710;6.398;2024-01-30T08:35:57;8.00;99.90
52125;DHT22;38119;52.710;6.398;2024-01-30T08:38:22;8.10;99.90
52125;DHT22;38119;52.710;6.398;2024-01-30T08:40:48;8.10;99.90
52125;DHT22;38119;52.710;6.398;2024-01-30T08:43:14;8.10;99.90
52125;DHT22;38119;52.710;6.398;2024-01-30T08:45:40;8.10;99.90
52125;DHT22;38119;52.710;6.398;2024-01-30T08:48:06;8.20;99.90
52125;DHT22;38119;52.710;6.398;2024-01-30T08:50:33;8.20;99.90
52125;DHT22;38119;52.710;6.398;2024-01-30T08:52:58;8.20;99.90
52125;DHT22;38119;52.710;6.398;2024-01-30T08:55:24;8.20;99.90
52125;DHT22;38119;52.710;6.398;2024-01-30T08:57:49;8.30;99.90
52125;DHT22;38119;52.710;6.398;2024-01-30T09:00:15;8.30;99.90
52125;DHT22;38119;52.710;6.398;2024-01-30T09:02:41;8.30;99.90
52125;DHT22;38119;52.710;6.398;2024-01-30T09:05:07;8.30;99.90
52125;DHT22;38119;52.710;6.398;2024-01-30T09:07:33;8.40;99.90
52125;DHT22;38119;52.710;6.398;2024-01-30T09:09:58;8.40;99.90
52125;DHT22;38119;52.710;6.398;2024-01-30T09:12:24;8.40;99.90
52125;DHT22;38119;52.710;6.398;2024-01-30T09:14:49;8.50;99.90
52125;DHT22;38119;52.710;6.398;2024-01-30T09:17:15;8.50;99.90
52125;DHT22;38119;52.710;6.398;2024-01-30T09:19:41;8.60;99.90
52125;DHT22;38119;52.710;6.398;2024-01-30T09:22:06;8.70;99.90
52125;DHT22;38119;52.710;6.398;2024-01-30T09:24:32;8.80;99.90
52125;DHT22;38119;52.710;6.398;2024-01-30T09:26:57;8.80;99.90
52125;DHT22;38119;52.710;6.398;2024-01-30T09:29:23;8.80;99.90
52125;DHT22;38119;52.710;6.398;2024-01-30T09:31:49;8.90;99.90
52125;DHT22;38119;52.710;6.398;2024-01-30T09:34:14;8.90;99.90
52125;DHT22;38119;52.710;6.398;2024-01-30T09:36:40;9.00;99.90
52125;DHT22;38119;52.710;6.398;2024-01-30T09:39:05;9.00;99.90
52125;DHT22;38119;52.710;6.398;2024-01-30T09:41:44;9.10;99.90
52125;DHT22;38119;52.710;6.398;2024-01-30T09:44:11;9.10;99.90
52125;DHT22;38119;52.710;6.398;2024-01-30T09:46:38;9.10;99.90
52125;DHT22;38119;52.710;6.398;2024-01-30T09:49:04;9.20;99.90
52125;DHT22;38119;52.710;6.398;2024-01-30T09:51:31;9.20;99.90
52125;DHT22;38119;52.710;6.398;2024-01-30T09:53:57;9.30;99.90
52125;DHT22;38119;52.710;6.398;2024-01-30T09:56:23;9.30;99.90
52125;DHT22;38119;52.710;6.398;2024-01-30T09:58:48;9.30;99.90
52125;DHT22;38119;52.710;6.398;2024-01-30T10:01:15;9.30;99.90
52125;DHT22;38119;52.710;6.398;2024-01-30T10:03:44;9.40;99.90
52125;DHT22;38119;52.710;6.398;2024-01-30T10:06:10;9.40;99.90
52125;DHT22;38119;52.710;6.398;2024-01-30T10:08:36;9.40;99.90
52125;DHT22;38119;52.710;6.398;2024-01-30T10:11:01;9.40;99.90
52125;DHT22;38119;52.710;6.398;2024-01-30T10:13:28;9.40;99.90
52125;DHT22;38119;52.710;6.398;2024-01-30T10:15:55;9.40;99.90
52125;DHT22;38119;52.710;6.398;2024-01-30T10:18:22;9.50;99.90
52125;DHT22;38119;52.710;6.398;2024-01-30T10:20:48;9.50;99.90
52125;DHT22;38119;52.710;6.398;2024-01-30T10:23:13;9.50;99.90
52125;DHT22;38119;52.710;6.398;2024-01-30T10:25:39;9.60;99.90
52125;DHT22;38119;52.710;6.398;2024-01-30T10:28:04;9.60;99.90
52125;DHT22;38119;52.710;6.398;2024-01-30T10:30:30;9.60;99.90
52125;DHT22;38119;52.710;6.398;2024-01-30T10:32:56;9.70;99.90
52125;DHT22;38119;52.710;6.398;2024-01-30T10:35:21;9.70;99.90
52125;DHT22;38119;52.710;6.398;2024-01-30T10:37:47;9.80;99.90
52125;DHT22;38119;52.710;6.398;2024-01-30T10:40:17;9.80;99.90
52125;DHT22;38119;52.710;6.398;2024-01-30T10:42:47;9.80;99.90
52125;DHT22;38119;52.710;6.398;2024-01-30T10:45:13;9.90;99.90
52125;DHT22;38119;52.710;6.398;2024-01-30T10:47:59;9.90;99.90
52125;DHT22;38119;52.710;6.398;2024-01-30T10:50:25;10.00;99.90
52125;DHT22;38119;52.710;6.398;2024-01-30T10:52:53;9.90;99.90
52125;DHT22;38119;52.710;6.398;2024-01-30T10:55:19;10.00;99.90
52125;DHT22;38119;52.710;6.398;2024-01-30T10:57:46;10.00;99.90
52125;DHT22;38119;52.710;6.398;2024-01-30T11:00:15;10.00;99.90
52125;DHT22;38119;52.710;6.398;2024-01-30T11:02:43;10.00;99.90
52125;DHT22;38119;52.710;6.398;2024-01-30T11:05:10;10.10;99.90
52125;DHT22;38119;52.710;6.398;2024-01-30T11:07:36;10.10;99.90
52125;DHT22;38119;52.710;6.398;2024-01-30T11:10:04;10.10;99.90
52125;DHT22;38119;52.710;6.398;2024-01-30T11:12:38;10.20;99.90
52125;DHT22;38119;52.710;6.398;2024-01-30T11:15:11;10.20;99.90
52125;DHT22;38119;52.710;6.398;2024-01-30T11:20:16;10.40;99.90
52125;DHT22;38119;52.710;6.398;2024-01-30T11:22:48;10.40;99.90
52125;DHT22;38119;52.710;6.398;2024-01-30T11:25:15;10.50;99.90
52125;DHT22;38119;52.710;6.398;2024-01-30T11:27:45;10.50;99.90
52125;DHT22;38119;52.710;6.398;2024-01-30T11:30:24;10.60;99.90
52125;DHT22;38119;52.710;6.398;2024-01-30T11:33:12;10.60;99.90
52125;DHT22;38119;52.710;6.398;2024-01-30T11:35:39;10.60;99.90
52125;DHT22;38119;52.710;6.398;2024-01-30T11:38:06;10.60;99.90
52125;DHT22;38119;52.710;6.398;2024-01-30T11:40:32;10.60;99.90
52125;DHT22;38119;52.710;6.398;2024-01-30T11:43:00;10.70;99.90
52125;DHT22;38119;52.710;6.398;2024-01-30T11:45:29;10.70;99.90
52125;DHT22;38119;52.710;6.398;2024-01-30T11:47:55;10.80;99.90
52125;DHT22;38119;52.710;6.398;2024-01-30T11:50:21;10.80;99.90
52125;DHT22;38119;52.710;6.398;2024-01-30T11:52:48;10.80;99.90
52125;DHT22;38119;52.710;6.398;2024-01-30T11:55:14;10.90;99.90
52125;DHT22;38119;52.710;6.398;2024-01-30T11:57:40;10.90;99.90
52125;DHT22;38119;52.710;6.398;2024-01-30T12:00:13;11.00;99.90
52125;DHT22;38119;52.710;6.398;2024-01-30T12:02:40;11.00;99.90
52125;DHT22;38119;52.710;6.398;2024-01-30T12:05:06;11.00;99.90
52125;DHT22;38119;52.710;6.398;2024-01-30T12:07:32;11.10;99.90
52125;DHT22;38119;52.710;6.398;2024-01-30T12:09:58;11.10;99.90
52125;DHT22;38119;52.710;6.398;2024-01-30T12:12:28;11.10;99.90
52125;DHT22;38119;52.710;6.398;2024-01-30T12:14:54;11.00;99.90
52125;DHT22;38119;52.710;6.398;2024-01-30T12:17:32;11.00;99.90
52125;DHT22;38119;52.710;6.398;2024-01-30T12:20:07;11.00;99.90
52125;DHT22;38119;52.710;6.398;2024-01-30T12:22:46;11.00;99.90
52125;DHT22;38119;52.710;6.398;2024-01-30T12:25:14;10.90;99.90
52125;DHT22;38119;52.710;6.398;2024-01-30T12:27:43;10.80;99.90
52125;DHT22;38119;52.710;6.398;2024-01-30T12:30:10;10.80;99.90
52125;DHT22;38119;52.710;6.398;2024-01-30T12:32:37;10.70;99.90
52125;DHT22;38119;52.710;6.398;2024-01-30T12:35:03;10.80;99.90
52125;DHT22;38119;52.710;6.398;2024-01-30T12:37:30;10.70;99.90
52125;DHT22;38119;52.710;6.398;2024-01-30T12:39:56;10.70;99.90
52125;DHT22;38119;52.710;6.398;2024-01-30T12:42:22;10.70;99.90
52125;DHT22;38119;52.710;6.398;2024-01-30T12:44:48;10.70;99.90
52125;DHT22;38119;52.710;6.398;2024-01-30T12:47:14;10.70;99.90
52125;DHT22;38119;52.710;6.398;2024-01-30T12:49:42;10.60;99.90
52125;DHT22;38119;52.710;6.398;2024-01-30T12:52:08;10.60;99.90
52125;DHT22;38119;52.710;6.398;2024-01-30T12:54:34;10.50;99.90
52125;DHT22;38119;52.710;6.398;2024-01-30T12:57:00;10.50;99.90
52125;DHT22;38119;52.710;6.398;2024-01-30T12:59:25;10.40;99.90
52125;DHT22;38119;52.710;6.398;2024-01-30T13:01:51;10.40;99.90
52125;DHT22;38119;52.710;6.398;2024-01-30T13:04:16;10.40;99.90
52125;DHT22;38119;52.710;6.398;2024-01-30T13:06:42;10.40;99.90
52125;DHT22;38119;52.710;6.398;2024-01-30T13:09:08;10.40;99.90
52125;DHT22;38119;52.710;6.398;2024-01-30T13:11:33;10.40;99.90
52125;DHT22;38119;52.710;6.398;2024-01-30T13:14:00;10.40;99.90
52125;DHT22;38119;52.710;6.398;2024-01-30T13:16:25;10.40;99.90
52125;DHT22;38119;52.710;6.398;2024-01-30T13:18:51;10.40;99.90
52125;DHT22;38119;52.710;6.398;2024-01-30T13:21:17;10.30;99.90
52125;DHT22;38119;52.710;6.398;2024-01-30T13:23:42;10.20;99.90
52125;DHT22;38119;52.710;6.398;2024-01-30T13:26:08;10.20;99.90
52125;DHT22;38119;52.710;6.398;2024-01-30T13:28:34;10.10;99.90
52125;DHT22;38119;52.710;6.398;2024-01-30T13:30:59;10.00;99.90
52125;DHT22;38119;52.710;6.398;2024-01-30T13:33:26;9.90;99.90
52125;DHT22;38119;52.710;6.398;2024-01-30T13:35:51;9.90;99.90
52125;DHT22;38119;52.710;6.398;2024-01-30T13:38:17;9.90;99.90
52125;DHT22;38119;52.710;6.398;2024-01-30T13:40:42;9.80;99.90
52125;DHT22;38119;52.710;6.398;2024-01-30T13:43:08;9.80;99.90
52125;DHT22;38119;52.710;6.398;2024-01-30T13:45:34;9.70;99.90
52125;DHT22;38119;52.710;6.398;2024-01-30T13:47:59;9.80;99.90
52125;DHT22;38119;52.710;6.398;2024-01-30T13:50:25;9.80;99.90
52125;DHT22;38119;52.710;6.398;2024-01-30T13:52:50;9.80;99.90
52125;DHT22;38119;52.710;6.398;2024-01-30T13:55:16;9.80;99.90
52125;DHT22;38119;52.710;6.398;2024-01-30T13:57:41;9.80;99.90
52125;DHT22;38119;52.710;6.398;2024-01-30T14:00:07;9.80;99.90
52125;DHT22;38119;52.710;6.398;2024-01-30T14:02:34;9.80;99.90
52125;DHT22;38119;52.710;6.398;2024-01-30T14:04:59;9.70;99.90
52125;DHT22;38119;52.710;6.398;2024-01-30T14:07:25;9.70;99.90
52125;DHT22;38119;52.710;6.398;2024-01-30T14:09:51;9.80;99.90
52125;DHT22;38119;52.710;6.398;2024-01-30T14:12:16;9.80;99.90
52125;DHT22;38119;52.710;6.398;2024-01-30T14:14:42;9.80;99.90
52125;DHT22;38119;52.710;6.398;2024-01-30T14:17:08;9.90;99.90
52125;DHT22;38119;52.710;6.398;2024-01-30T14:19:34;9.70;99.90
52125;DHT22;38119;52.710;6.398;2024-01-30T14:22:00;9.70;99.90
52125;DHT22;38119;52.710;6.398;2024-01-30T14:24:25;9.70;99.90
52125;DHT22;38119;52.710;6.398;2024-01-30T14:26:52;9.70;99.90
52125;DHT22;38119;52.710;6.398;2024-01-30T14:29:17;9.70;99.90
52125;DHT22;38119;52.710;6.398;2024-01-30T14:31:43;9.70;99.90
52125;DHT22;38119;52.710;6.398;2024-01-30T14:34:08;9.60;99.90
52125;DHT22;38119;52.710;6.398;2024-01-30T14:36:36;9.60;99.90
52125;DHT22;38119;52.710;6.398;2024-01-30T14:39:02;9.60;99.90
52125;DHT22;38119;52.710;6.398;2024-01-30T14:41:29;9.60;99.90
52125;DHT22;38119;52.710;6.398;2024-01-30T14:43:55;9.50;99.90
52125;DHT22;38119;52.710;6.398;2024-01-30T14:46:21;9.50;99.90
52125;DHT22;38119;52.710;6.398;2024-01-30T14:48:47;9.50;99.90
52125;DHT22;38119;52.710;6.398;2024-01-30T14:51:13;9.50;99.90
52125;DHT22;38119;52.710;6.398;2024-01-30T14:53:39;9.40;99.90
52125;DHT22;38119;52.710;6.398;2024-01-30T14:56:05;9.40;99.90
52125;DHT22;38119;52.710;6.398;2024-01-30T14:58:31;9.40;99.90
52125;DHT22;38119;52.710;6.398;2024-01-30T15:00:57;9.30;99.90
52125;DHT22;38119;52.710;6.398;2024-01-30T15:03:22;9.30;99.90
52125;DHT22;38119;52.710;6.398;2024-01-30T15:05:48;9.20;99.90
52125;DHT22;38119;52.710;6.398;2024-01-30T15:08:13;9.20;99.90
52125;DHT22;38119;52.710;6.398;2024-01-30T15:10:39;9.10;99.90
52125;DHT22;38119;52.710;6.398;2024-01-30T15:13:05;9.10;99.90
52125;DHT22;38119;52.710;6.398;2024-01-30T15:15:30;9.00;99.90
52125;DHT22;38119;52.710;6.398;2024-01-30T15:17:56;9.10;99.90
52125;DHT22;38119;52.710;6.398;2024-01-30T15:20:23;9.00;99.90
52125;DHT22;38119;52.710;6.398;2024-01-30T15:22:48;9.00;99.90
52125;DHT22;38119;52.710;6.398;2024-01-30T15:25:14;8.90;99.90
52125;DHT22;38119;52.710;6.398;2024-01-30T15:27:40;8.90;99.90
52125;DHT22;38119;52.710;6.398;2024-01-30T15:30:06;8.90;99.90
52125;DHT22;38119;52.710;6.398;2024-01-30T15:32:32;8.90;99.90
52125;DHT22;38119;52.710;6.398;2024-01-30T15:34:59;8.90;99.90
52125;DHT22;38119;52.710;6.398;2024-01-30T15:37:28;8.90;99.90